createdAt,value
2022-09-30T00:01:52.975Z,14.98
2022-09-30T00:04:23.188Z,13.13
2022-09-30T00:06:51.710Z,17.25
2022-09-30T00:09:19.114Z,12.32
2022-09-30T00:11:46.661Z,15.15
2022-09-30T00:14:16.016Z,12.57
2022-09-30T00:16:43.549Z,13.43
2022-09-30T00:19:11.042Z,15.32
2022-09-30T00:21:39.780Z,13.50
2022-09-30T00:24:07.344Z,15.95
2022-09-30T00:26:35.183Z,15.20
2022-09-30T00:29:03.008Z,14.45
2022-09-30T00:31:31.631Z,12.90
2022-09-30T00:34:08.210Z,12.57
2022-09-30T00:36:36.978Z,14.65
2022-09-30T00:39:06.139Z,16.85
2022-09-30T00:41:33.467Z,15.85
2022-09-30T00:44:00.988Z,17.40
2022-09-30T00:46:32.007Z,15.13
2022-09-30T00:49:00.238Z,14.43
2022-09-30T00:51:29.813Z,14.20
2022-09-30T00:53:58.499Z,15.90
2022-09-30T00:56:28.595Z,15.25
2022-09-30T00:58:57.704Z,15.57
2022-09-30T01:01:25.396Z,14.80
2022-09-30T01:03:55.334Z,16.65
2022-09-30T01:06:23.386Z,17.48
2022-09-30T01:08:51.094Z,14.90
2022-09-30T01:11:18.454Z,15.02
2022-09-30T01:13:49.233Z,19.10
2022-09-30T01:16:31.752Z,18.60
2022-09-30T01:19:05.065Z,14.93
2022-09-30T01:21:41.803Z,13.45
2022-09-30T01:24:17.082Z,17.73
2022-09-30T01:26:53.142Z,17.67
2022-09-30T01:29:38.474Z,16.77
2022-09-30T01:32:09.566Z,16.45
2022-09-30T01:34:43.013Z,18.08
2022-09-30T01:37:14.310Z,15.30
2022-09-30T01:39:47.215Z,20.98
2022-09-30T01:42:19.729Z,20.23
2022-09-30T01:44:51.493Z,18.15
2022-09-30T01:47:25.263Z,19.02
2022-09-30T01:49:54.811Z,22.38
2022-09-30T01:52:24.212Z,17.88
2022-09-30T01:54:55.186Z,20.42
2022-09-30T01:57:26.969Z,20.75
2022-09-30T01:59:57.505Z,22.02
2022-09-30T02:02:27.746Z,17.17
2022-09-30T02:04:57.525Z,16.98
2022-09-30T02:07:26.195Z,19.90
2022-09-30T02:09:55.640Z,18.02
2022-09-30T02:12:25.806Z,18.33
2022-09-30T02:14:56.537Z,18.70
2022-09-30T02:17:25.981Z,17.48
2022-09-30T02:20:00.147Z,19.15
2022-09-30T02:22:31.812Z,19.45
2022-09-30T02:25:01.858Z,21.80
2022-09-30T02:27:31.292Z,21.85
2022-09-30T02:29:59.855Z,19.73
2022-09-30T02:32:29.067Z,23.15
2022-09-30T02:35:01.727Z,24.55
2022-09-30T02:37:32.163Z,19.98
2022-09-30T02:40:02.531Z,22.98
2022-09-30T02:42:30.930Z,23.90
2022-09-30T02:45:01.474Z,21.23
2022-09-30T02:47:34.086Z,22.33
2022-09-30T02:50:04.145Z,26.20
2022-09-30T02:52:38.141Z,22.42
2022-09-30T02:55:14.109Z,22.08
2022-09-30T02:57:45.678Z,25.85
2022-09-30T03:00:13.759Z,26.45
2022-09-30T03:02:41.477Z,23.80
2022-09-30T03:05:11.098Z,20.63
2022-09-30T03:07:38.692Z,22.75
2022-09-30T03:10:12.699Z,21.20
2022-09-30T03:12:42.622Z,25.30
2022-09-30T03:15:23.947Z,21.25
2022-09-30T03:18:05.551Z,20.35
2022-09-30T03:20:40.701Z,19.15
2022-09-30T03:23:24.459Z,19.05
2022-09-30T03:25:57.843Z,18.35
2022-09-30T03:28:28.032Z,16.63
2022-09-30T03:31:00.547Z,15.82
2022-09-30T03:33:31.032Z,17.70
2022-09-30T03:36:03.024Z,18.38
2022-09-30T03:38:37.294Z,19.85
2022-09-30T03:41:08.245Z,19.33
2022-09-30T03:43:36.872Z,16.75
2022-09-30T03:46:07.573Z,17.40
2022-09-30T03:48:36.581Z,19.55
2022-09-30T03:51:06.541Z,21.25
2022-09-30T03:53:38.537Z,17.50
2022-09-30T03:56:05.997Z,14.25
2022-09-30T03:58:33.906Z,16.77
2022-09-30T04:01:01.478Z,14.38
2022-09-30T04:03:28.877Z,14.25
2022-09-30T04:05:56.162Z,13.80
2022-09-30T04:08:24.845Z,14.45
2022-09-30T04:10:52.120Z,15.05
2022-09-30T04:13:19.428Z,23.58
2022-09-30T04:15:53.817Z,16.17
2022-09-30T04:18:21.131Z,16.33
2022-09-30T04:20:48.430Z,17.02
2022-09-30T04:23:15.898Z,15.85
2022-09-30T04:25:44.557Z,18.77
2022-09-30T04:28:11.834Z,18.42
2022-09-30T04:30:39.176Z,17.80
2022-09-30T04:33:06.477Z,18.67
2022-09-30T04:35:33.801Z,16.90
2022-09-30T04:38:02.605Z,14.75
2022-09-30T04:40:29.879Z,21.60
2022-09-30T04:42:59.019Z,15.50
2022-09-30T04:45:26.473Z,20.23
2022-09-30T04:47:53.917Z,24.92
2022-09-30T04:50:21.324Z,15.27
2022-09-30T04:52:48.709Z,22.95
2022-09-30T04:55:16.090Z,17.30
2022-09-30T04:57:44.941Z,20.67
2022-09-30T05:00:14.202Z,22.70
2022-09-30T05:02:43.937Z,22.17
2022-09-30T05:05:11.239Z,26.25
2022-09-30T05:07:38.544Z,24.13
2022-09-30T05:10:07.390Z,27.45
2022-09-30T05:12:34.733Z,31.67
2022-09-30T05:15:02.038Z,26.85
2022-09-30T05:17:32.052Z,21.27
2022-09-30T05:19:59.715Z,25.80
2022-09-30T05:22:27.820Z,27.95
2022-09-30T05:24:56.341Z,26.52
2022-09-30T05:27:23.768Z,26.30
2022-09-30T05:29:51.097Z,17.83
2022-09-30T05:32:19.889Z,23.05
2022-09-30T05:34:48.690Z,23.73
2022-09-30T05:37:16.027Z,27.00
2022-09-30T05:39:43.333Z,31.27
2022-09-30T05:42:13.930Z,24.80
2022-09-30T05:44:41.504Z,25.65
2022-09-30T05:47:11.481Z,21.40
2022-09-30T05:49:41.578Z,25.48
2022-09-30T05:52:11.677Z,26.10
2022-09-30T05:54:39.881Z,27.88
2022-09-30T05:57:07.744Z,26.75
2022-09-30T05:59:35.027Z,27.45
2022-09-30T06:02:02.468Z,27.73
2022-09-30T06:04:29.820Z,23.80
2022-09-30T06:06:57.130Z,25.50
2022-09-30T06:09:26.272Z,20.48
2022-09-30T06:11:58.897Z,20.20
2022-09-30T06:14:28.058Z,21.80
2022-09-30T06:16:55.597Z,19.35
2022-09-30T06:19:22.998Z,20.38
2022-09-30T06:21:50.343Z,20.60
2022-09-30T06:24:17.682Z,18.23
2022-09-30T06:26:46.413Z,19.38
2022-09-30T06:29:14.360Z,18.58
2022-09-30T06:31:41.946Z,14.70
2022-09-30T06:34:10.313Z,15.77
2022-09-30T06:36:37.691Z,16.70
2022-09-30T06:39:06.526Z,20.33
2022-09-30T06:41:39.635Z,22.80
2022-09-30T06:44:08.285Z,16.40
2022-09-30T06:46:38.423Z,15.25
2022-09-30T06:49:13.685Z,17.85
2022-09-30T06:51:41.953Z,15.60
2022-09-30T06:54:09.921Z,17.45
2022-09-30T06:56:37.356Z,13.68
2022-09-30T06:59:04.785Z,9.95
2022-09-30T07:01:33.467Z,12.95
2022-09-30T07:04:03.156Z,14.70
2022-09-30T07:06:31.044Z,11.00
2022-09-30T07:08:58.355Z,11.35
2022-09-30T07:11:25.993Z,9.20
2022-09-30T07:13:53.269Z,14.00
2022-09-30T07:16:21.047Z,11.63
2022-09-30T07:18:49.863Z,7.25
2022-09-30T07:21:17.178Z,10.13
2022-09-30T07:23:47.137Z,7.47
2022-09-30T07:26:15.339Z,7.53
2022-09-30T07:28:43.559Z,8.77
2022-09-30T07:31:31.819Z,6.82
2022-09-30T07:34:00.917Z,11.35
2022-09-30T07:36:32.622Z,10.30
2022-09-30T07:39:03.141Z,6.43
2022-09-30T07:41:30.495Z,11.38
2022-09-30T07:43:58.697Z,9.15
2022-09-30T07:46:27.198Z,9.13
2022-09-30T07:48:57.431Z,7.72
2022-09-30T07:51:29.984Z,7.90
2022-09-30T07:53:58.799Z,6.20
2022-09-30T07:56:26.879Z,9.75
2022-09-30T07:58:55.444Z,8.02
2022-09-30T08:01:23.131Z,8.95
2022-09-30T08:03:53.308Z,10.40
2022-09-30T08:06:21.058Z,8.02
2022-09-30T08:08:51.269Z,13.07
2022-09-30T08:11:18.599Z,11.18
2022-09-30T08:13:46.006Z,8.80
2022-09-30T08:16:13.354Z,11.02
2022-09-30T08:18:40.694Z,11.02
2022-09-30T08:21:08.074Z,11.65
2022-09-30T08:23:35.814Z,10.73
2022-09-30T08:26:05.769Z,10.20
2022-09-30T08:28:33.188Z,11.48
2022-09-30T08:31:06.923Z,10.57
2022-09-30T08:33:34.658Z,10.90
2022-09-30T08:36:05.753Z,13.10
2022-09-30T08:38:33.130Z,12.23
2022-09-30T08:41:05.611Z,13.30
2022-09-30T08:43:39.668Z,11.05
2022-09-30T08:46:09.910Z,10.60
2022-09-30T08:48:45.812Z,10.05
2022-09-30T08:51:20.829Z,10.55
2022-09-30T08:53:48.405Z,10.60
2022-09-30T08:56:20.834Z,12.35
2022-09-30T08:58:50.542Z,8.43
2022-09-30T09:01:20.105Z,14.95
2022-09-30T09:03:47.738Z,10.95
2022-09-30T09:06:23.455Z,8.95
2022-09-30T09:09:11.117Z,10.95
2022-09-30T09:11:46.476Z,10.52
2022-09-30T09:14:20.609Z,16.75
2022-09-30T09:16:53.739Z,12.23
2022-09-30T09:19:24.477Z,13.77
2022-09-30T09:21:53.358Z,13.88
2022-09-30T09:24:21.721Z,13.43
2022-09-30T09:26:49.353Z,11.32
2022-09-30T09:29:23.983Z,12.23
2022-09-30T09:31:51.511Z,11.63
2022-09-30T09:34:18.880Z,13.77
2022-09-30T09:36:54.442Z,15.93
2022-09-30T09:39:26.775Z,14.18
2022-09-30T09:41:56.915Z,17.08
2022-09-30T09:44:28.886Z,11.90
2022-09-30T09:47:05.361Z,12.95
2022-09-30T09:49:34.742Z,15.23
2022-09-30T09:52:14.397Z,13.73
2022-09-30T09:54:42.779Z,16.08
2022-09-30T09:57:11.110Z,10.88
2022-09-30T09:59:55.817Z,14.57
2022-09-30T10:02:24.529Z,13.77
2022-09-30T10:04:59.825Z,14.48
2022-09-30T10:07:28.560Z,11.80
2022-09-30T10:10:07.541Z,11.35
2022-09-30T10:12:35.374Z,10.88
2022-09-30T10:15:06.178Z,12.82
2022-09-30T10:17:34.360Z,9.68
2022-09-30T10:20:03.964Z,13.75
2022-09-30T10:22:32.263Z,13.27
2022-09-30T10:25:20.080Z,11.05
2022-09-30T10:27:52.188Z,9.38
2022-09-30T10:30:35.086Z,10.98
2022-09-30T10:33:04.137Z,8.57
2022-09-30T10:35:31.612Z,7.22
2022-09-30T10:38:00.154Z,6.68
2022-09-30T10:40:29.015Z,10.45
2022-09-30T10:42:56.891Z,5.97
2022-09-30T10:45:25.542Z,4.65
2022-09-30T10:47:55.117Z,5.50
2022-09-30T10:50:24.853Z,5.28
2022-09-30T10:52:55.760Z,5.95
2022-09-30T10:55:29.104Z,6.78
2022-09-30T10:57:58.475Z,6.18
2022-09-30T11:00:27.724Z,3.65
2022-09-30T11:02:59.259Z,5.45
2022-09-30T11:05:29.570Z,8.40
2022-09-30T11:08:00.707Z,3.78
2022-09-30T11:10:39.232Z,6.07
2022-09-30T11:13:10.037Z,4.57
2022-09-30T11:15:42.009Z,3.63
2022-09-30T11:18:17.704Z,5.40
2022-09-30T11:20:48.215Z,3.88
2022-09-30T11:23:19.909Z,5.18
2022-09-30T11:25:50.602Z,5.13
2022-09-30T11:28:28.844Z,5.97
2022-09-30T11:31:02.816Z,3.90
2022-09-30T11:33:51.643Z,5.55
2022-09-30T11:36:24.263Z,6.68
2022-09-30T11:38:57.740Z,5.07
2022-09-30T11:41:26.458Z,3.55
2022-09-30T11:44:00.015Z,4.75
2022-09-30T11:46:33.467Z,5.15
2022-09-30T11:49:09.104Z,5.15
2022-09-30T11:51:40.548Z,4.30
2022-09-30T11:54:16.482Z,2.95
2022-09-30T11:56:48.004Z,3.53
2022-09-30T11:59:18.236Z,3.15
2022-09-30T12:01:47.003Z,4.45
2022-09-30T12:04:18.440Z,3.63
2022-09-30T12:06:49.418Z,4.15
2022-09-30T12:09:20.684Z,4.15
2022-09-30T12:11:51.582Z,3.45
2022-09-30T12:14:21.865Z,3.90
2022-09-30T12:16:51.126Z,3.42
2022-09-30T12:19:25.220Z,3.72
2022-09-30T12:21:56.088Z,4.15
2022-09-30T12:24:26.395Z,3.42
2022-09-30T12:26:53.960Z,3.50
2022-09-30T12:29:41.009Z,3.25
2022-09-30T12:32:19.216Z,4.30
2022-09-30T12:34:54.670Z,4.03
2022-09-30T12:37:36.512Z,3.95
2022-09-30T12:40:17.753Z,4.22
2022-09-30T12:43:08.780Z,3.47
2022-09-30T12:45:54.935Z,6.32
2022-09-30T12:48:24.680Z,3.13
2022-09-30T12:50:54.848Z,4.45
2022-09-30T12:53:23.424Z,3.95
2022-09-30T12:55:51.054Z,4.10
2022-09-30T12:58:21.619Z,4.40
2022-09-30T13:01:00.843Z,3.50
2022-09-30T13:03:28.222Z,3.58
2022-09-30T13:06:06.206Z,5.20
2022-09-30T13:08:51.733Z,6.00
2022-09-30T13:11:31.195Z,4.57
2022-09-30T13:14:00.442Z,1.95
2022-09-30T13:16:47.243Z,2.00
2022-09-30T13:19:21.643Z,4.68
2022-09-30T13:21:52.083Z,5.60
2022-09-30T13:24:19.615Z,2.95
2022-09-30T13:26:49.169Z,2.63
2022-09-30T13:29:43.555Z,2.38
2022-09-30T13:32:11.384Z,1.15
2022-09-30T13:34:57.804Z,6.38
2022-09-30T13:37:37.663Z,2.58
2022-09-30T13:40:06.752Z,1.88
2022-09-30T13:42:39.279Z,3.50
2022-09-30T13:45:10.964Z,2.28
2022-09-30T13:47:40.220Z,2.13
2022-09-30T13:50:13.828Z,3.58
2022-09-30T13:52:43.662Z,3.08
2022-09-30T13:55:15.950Z,4.97
2022-09-30T13:57:50.559Z,2.33
2022-09-30T14:00:19.037Z,2.08
2022-09-30T14:02:54.613Z,2.25
2022-09-30T14:05:35.038Z,1.85
2022-09-30T14:08:19.261Z,2.42
2022-09-30T14:10:56.970Z,2.80
2022-09-30T14:13:32.350Z,4.38
2022-09-30T14:16:07.127Z,2.65
2022-09-30T14:21:16.219Z,1.88
2022-09-30T14:23:44.962Z,3.00
2022-09-30T14:26:22.235Z,2.05
2022-09-30T14:28:52.455Z,3.10
2022-09-30T14:31:20.193Z,2.20
2022-09-30T14:33:49.458Z,1.58
2022-09-30T14:36:17.960Z,3.50
2022-09-30T14:38:48.203Z,1.10
2022-09-30T14:41:18.078Z,1.63
2022-09-30T14:43:46.572Z,4.35
2022-09-30T14:46:17.027Z,1.70
2022-09-30T14:48:45.726Z,2.80
2022-09-30T14:51:13.780Z,2.33
2022-09-30T14:53:41.798Z,1.95
2022-09-30T14:56:20.638Z,2.67
2022-09-30T14:58:48.137Z,2.08
2022-09-30T15:01:17.520Z,5.13
2022-09-30T15:03:46.113Z,1.55
2022-09-30T15:06:18.398Z,1.55
2022-09-30T15:08:46.000Z,2.38
2022-09-30T15:11:20.147Z,2.97
2022-09-30T15:13:49.113Z,2.58
2022-09-30T15:16:23.252Z,3.83
2022-09-30T15:18:50.599Z,3.03
2022-09-30T15:21:18.057Z,2.63
2022-09-30T15:23:46.691Z,2.53
2022-09-30T15:26:14.978Z,3.75
2022-09-30T15:28:43.663Z,1.60
2022-09-30T15:31:18.036Z,1.90
2022-09-30T15:33:45.817Z,3.72
2022-09-30T15:36:16.974Z,1.85
2022-09-30T15:38:48.798Z,2.78
2022-09-30T15:41:16.482Z,4.28
2022-09-30T15:43:46.141Z,2.83
2022-09-30T15:46:18.118Z,5.45
2022-09-30T15:48:45.875Z,1.58
2022-09-30T15:51:36.119Z,2.10
2022-09-30T15:54:23.782Z,3.45
2022-09-30T15:56:51.065Z,3.42
2022-09-30T15:59:19.956Z,3.15
2022-09-30T16:01:47.794Z,3.47
2022-09-30T16:04:24.507Z,2.17
2022-09-30T16:06:52.829Z,1.92
2022-09-30T16:09:21.753Z,1.33
2022-09-30T16:11:57.227Z,2.40
2022-09-30T16:14:27.381Z,3.17
2022-09-30T16:16:56.209Z,3.97
2022-09-30T16:19:25.128Z,3.85
2022-09-30T16:21:54.560Z,4.95
2022-09-30T16:24:40.947Z,1.80
2022-09-30T16:27:20.204Z,4.28
2022-09-30T16:29:48.865Z,4.40
2022-09-30T16:32:16.185Z,5.78
2022-09-30T16:34:43.545Z,3.88
2022-09-30T16:37:12.278Z,7.13
2022-09-30T16:39:39.773Z,2.83
2022-09-30T16:42:07.083Z,1.65
2022-09-30T16:44:35.521Z,1.83
2022-09-30T16:47:04.367Z,2.28
2022-09-30T16:49:31.708Z,3.42
2022-09-30T16:51:58.995Z,2.42
2022-09-30T16:54:26.301Z,3.00
2022-09-30T16:56:56.552Z,3.13
2022-09-30T16:59:26.801Z,3.65
2022-09-30T17:01:54.258Z,3.20
2022-09-30T17:04:26.552Z,5.13
2022-09-30T17:06:54.584Z,2.97
2022-09-30T17:09:21.883Z,4.57
2022-09-30T17:11:52.366Z,3.38
2022-09-30T17:14:20.022Z,2.05
2022-09-30T17:16:47.554Z,4.93
2022-09-30T17:19:15.170Z,3.72
2022-09-30T17:21:43.846Z,2.13
2022-09-30T17:24:11.179Z,2.15
2022-09-30T17:26:38.916Z,2.58
2022-09-30T17:29:30.803Z,3.08
2022-09-30T17:31:55.449Z,1.30
2022-09-30T17:34:23.674Z,1.83
2022-09-30T17:36:52.539Z,2.15
2022-09-30T17:39:19.923Z,1.63
2022-09-30T17:42:04.980Z,3.42
2022-09-30T17:44:33.073Z,3.03
2022-09-30T17:47:01.156Z,4.13
2022-09-30T17:49:32.116Z,3.92
2022-09-30T17:52:01.008Z,2.85
2022-09-30T17:54:28.695Z,3.08
2022-09-30T17:56:56.951Z,4.00
2022-09-30T17:59:26.797Z,5.80
2022-09-30T18:01:56.202Z,5.45
2022-09-30T18:04:24.559Z,3.97
2022-09-30T18:06:52.243Z,4.07
2022-09-30T18:09:21.119Z,5.15
2022-09-30T18:11:48.507Z,4.90
2022-09-30T18:14:16.063Z,4.57
2022-09-30T18:16:43.598Z,3.33
2022-09-30T18:19:11.021Z,4.43
2022-09-30T18:21:39.206Z,5.32
2022-09-30T18:24:07.502Z,3.97
2022-09-30T18:26:36.254Z,4.00
2022-09-30T18:29:03.620Z,3.17
2022-09-30T18:31:36.785Z,2.30
2022-09-30T18:34:05.468Z,3.20
2022-09-30T18:36:33.302Z,3.28
2022-09-30T18:39:01.862Z,2.58
2022-09-30T18:41:30.540Z,2.88
2022-09-30T18:44:02.570Z,3.35
2022-09-30T18:46:30.687Z,4.15
2022-09-30T18:48:58.011Z,4.18
2022-09-30T18:51:25.894Z,3.05
2022-09-30T18:53:57.360Z,3.28
2022-09-30T18:56:25.356Z,3.75
2022-09-30T18:58:52.992Z,2.88
2022-09-30T19:01:21.802Z,2.78
2022-09-30T19:03:49.221Z,3.25
2022-09-30T19:06:16.710Z,3.95
2022-09-30T19:08:44.385Z,2.40
2022-09-30T19:11:14.616Z,2.80
2022-09-30T19:13:42.939Z,5.47
2022-09-30T19:16:10.934Z,3.80
2022-09-30T19:18:40.078Z,3.00
2022-09-30T19:21:07.978Z,3.30
2022-09-30T19:23:36.518Z,2.42
2022-09-30T19:26:03.893Z,3.03
2022-09-30T19:28:32.094Z,10.32
2022-09-30T19:31:05.098Z,6.57
2022-09-30T19:33:34.583Z,3.83
2022-09-30T19:36:13.967Z,4.63
2022-09-30T19:38:42.721Z,4.85
2022-09-30T19:41:10.527Z,6.63
2022-09-30T19:43:40.581Z,5.78
2022-09-30T19:46:08.320Z,7.57
2022-09-30T19:48:36.576Z,6.55
2022-09-30T19:51:06.792Z,3.33
2022-09-30T19:53:40.909Z,6.75
2022-09-30T19:56:12.397Z,4.60
2022-09-30T19:58:40.211Z,7.03
2022-09-30T20:01:07.951Z,5.28
2022-09-30T20:03:35.930Z,3.78
2022-09-30T20:06:05.650Z,3.78
2022-09-30T20:08:34.387Z,3.35
2022-09-30T20:11:02.560Z,3.67
2022-09-30T20:13:30.094Z,5.88
2022-09-30T20:15:58.629Z,4.20
2022-09-30T20:18:26.159Z,3.67
2022-09-30T20:20:54.590Z,4.07
2022-09-30T20:23:23.275Z,5.10
2022-09-30T20:25:52.689Z,6.20
2022-09-30T20:28:20.360Z,3.05
2022-09-30T20:30:47.963Z,3.80
2022-09-30T20:33:16.354Z,5.22
2022-09-30T20:35:43.697Z,3.10
2022-09-30T20:38:12.605Z,3.40
2022-09-30T20:40:41.300Z,4.47
2022-09-30T20:43:08.823Z,4.55
2022-09-30T20:45:36.524Z,3.22
2022-09-30T20:48:04.293Z,3.22
2022-09-30T20:50:38.280Z,3.75
2022-09-30T20:53:08.815Z,3.80
2022-09-30T20:55:37.187Z,3.75
2022-09-30T20:58:06.600Z,5.38
2022-09-30T21:00:35.198Z,5.40
2022-09-30T21:03:02.775Z,5.15
2022-09-30T21:05:30.939Z,6.00
2022-09-30T21:07:59.192Z,3.25
2022-09-30T21:10:26.526Z,7.32
2022-09-30T21:12:53.820Z,6.57
2022-09-30T21:15:22.783Z,4.22
2022-09-30T21:17:50.125Z,4.40
2022-09-30T21:20:17.903Z,3.45
2022-09-30T21:22:45.218Z,5.78
2022-09-30T21:25:12.961Z,4.18
2022-09-30T21:27:40.753Z,4.15
2022-09-30T21:30:08.519Z,4.65
2022-09-30T21:32:37.195Z,5.40
2022-09-30T21:35:05.195Z,3.85
2022-09-30T21:37:32.495Z,5.45
2022-09-30T21:39:59.785Z,5.50
2022-09-30T21:42:27.106Z,4.07
2022-09-30T21:44:54.430Z,5.10
2022-09-30T21:47:21.755Z,5.03
2022-09-30T21:49:53.606Z,6.07
2022-09-30T21:52:22.017Z,5.93
2022-09-30T21:54:51.953Z,4.10
2022-09-30T21:57:19.419Z,7.68
2022-09-30T21:59:50.386Z,4.60
2022-09-30T22:02:17.909Z,6.28
2022-09-30T22:04:45.282Z,5.60
2022-09-30T22:07:15.285Z,4.50
2022-09-30T22:09:42.724Z,8.07
2022-09-30T22:12:10.002Z,5.13
2022-09-30T22:14:37.548Z,7.65
2022-09-30T22:17:09.785Z,5.28
2022-09-30T22:19:38.382Z,9.48
2022-09-30T22:22:05.904Z,6.60
2022-09-30T22:24:36.752Z,4.60
2022-09-30T22:27:05.292Z,6.45
2022-09-30T22:29:32.623Z,4.20
2022-09-30T22:32:01.671Z,4.10
2022-09-30T22:34:43.076Z,5.75
2022-09-30T22:37:28.110Z,5.72
2022-09-30T22:40:00.768Z,5.55
2022-09-30T22:42:29.082Z,7.07
2022-09-30T22:44:56.408Z,7.22
2022-09-30T22:47:23.737Z,5.78
2022-09-30T22:49:51.029Z,6.93
2022-09-30T22:52:18.442Z,5.65
2022-09-30T22:54:45.739Z,6.85
2022-09-30T22:57:14.396Z,4.60
2022-09-30T22:59:42.857Z,6.45
2022-09-30T23:02:10.205Z,5.43
2022-09-30T23:04:37.490Z,5.80
2022-09-30T23:07:07.476Z,5.45
2022-09-30T23:09:34.789Z,4.72
2022-09-30T23:12:02.258Z,5.43
2022-09-30T23:14:30.881Z,7.15
2022-09-30T23:16:58.230Z,6.03
2022-09-30T23:19:25.633Z,4.85
2022-09-30T23:21:52.914Z,5.53
2022-09-30T23:24:20.237Z,7.22
2022-09-30T23:26:47.763Z,6.30
2022-09-30T23:29:15.760Z,5.70
2022-09-30T23:31:44.544Z,6.55
2022-09-30T23:34:12.913Z,5.63
2022-09-30T23:36:40.281Z,7.47
2022-09-30T23:39:09.138Z,4.90
2022-09-30T23:41:36.857Z,6.30
2022-09-30T23:44:04.585Z,4.88
2022-09-30T23:46:32.298Z,8.10
2022-09-30T23:49:01.097Z,5.82
2022-09-30T23:51:28.388Z,6.38
2022-09-30T23:53:55.968Z,14.10
2022-09-30T23:56:23.862Z,6.15
2022-09-30T23:58:51.307Z,8.85
